createdAt,value
2023-06-30T00:04:25.145Z,96.45
2023-06-30T00:09:29.095Z,96.99
2023-06-30T00:14:32.120Z,96.11
2023-06-30T00:19:36.857Z,95.76
2023-06-30T00:24:39.964Z,96.24
2023-06-30T00:29:43.038Z,95.92
2023-06-30T00:34:47.823Z,95.58
2023-06-30T00:39:52.254Z,95.13
2023-06-30T00:44:55.262Z,94.65
2023-06-30T00:49:59.866Z,94.04
2023-06-30T00:55:03.344Z,93.85
2023-06-30T01:00:16.733Z,93.59
2023-06-30T01:05:32.407Z,93.98
2023-06-30T01:10:37.225Z,94.00
2023-06-30T01:15:43.338Z,95.16
2023-06-30T01:20:48.467Z,94.20
2023-06-30T01:25:52.551Z,93.34
2023-06-30T01:30:56.120Z,93.72
2023-06-30T01:36:00.802Z,94.99
2023-06-30T01:41:06.072Z,95.51
2023-06-30T01:46:09.266Z,95.85
2023-06-30T01:51:16.030Z,94.88
2023-06-30T01:56:20.308Z,95.02
2023-06-30T02:01:23.910Z,95.13
2023-06-30T02:06:28.317Z,95.77
2023-06-30T02:11:31.491Z,95.58
2023-06-30T02:16:35.584Z,95.35
2023-06-30T02:21:40.219Z,95.92
2023-06-30T02:26:43.170Z,95.37
2023-06-30T02:31:46.351Z,96.27
2023-06-30T02:36:51.655Z,96.20
2023-06-30T02:41:54.749Z,97.40
2023-06-30T02:46:57.934Z,97.29
2023-06-30T02:52:02.847Z,98.44
2023-06-30T02:57:06.851Z,97.10
2023-06-30T03:02:10.650Z,97.01
2023-06-30T03:07:15.639Z,97.08
2023-06-30T03:12:19.740Z,97.90
2023-06-30T03:17:23.219Z,98.47
2023-06-30T03:22:29.187Z,98.44
2023-06-30T03:27:32.743Z,98.41
2023-06-30T03:32:35.850Z,99.31
2023-06-30T03:37:40.341Z,99.56
2023-06-30T03:42:43.809Z,98.57
2023-06-30T03:47:47.419Z,98.55
2023-06-30T03:52:52.665Z,98.82
2023-06-30T03:57:55.728Z,97.98
2023-06-30T04:02:58.929Z,98.02
2023-06-30T04:08:03.627Z,98.22
2023-06-30T04:13:08.318Z,99.11
2023-06-30T04:18:11.467Z,98.43
2023-06-30T04:23:15.861Z,98.19
2023-06-30T04:28:18.927Z,98.46
2023-06-30T04:33:21.992Z,98.22
2023-06-30T04:38:26.581Z,100.00
2023-06-30T04:43:29.750Z,100.00
2023-06-30T04:48:32.701Z,99.33
2023-06-30T04:53:40.192Z,98.37
2023-06-30T04:58:43.260Z,98.43
2023-06-30T05:03:46.315Z,99.62
2023-06-30T05:08:50.786Z,99.05
2023-06-30T05:13:53.961Z,98.72
2023-06-30T05:18:56.963Z,97.62
2023-06-30T05:24:01.416Z,98.29
2023-06-30T05:29:07.555Z,97.88
2023-06-30T05:34:16.624Z,97.99
2023-06-30T05:39:21.439Z,97.17
2023-06-30T05:44:24.785Z,95.88
2023-06-30T05:49:28.822Z,95.75
2023-06-30T05:54:33.474Z,94.23
2023-06-30T05:59:36.447Z,94.38
2023-06-30T06:04:39.675Z,92.62
2023-06-30T06:09:44.118Z,92.18
2023-06-30T06:14:47.604Z,91.62
2023-06-30T06:19:50.671Z,89.97
2023-06-30T06:24:55.088Z,90.33
2023-06-30T06:29:58.100Z,89.03
2023-06-30T06:35:01.272Z,89.22
2023-06-30T06:40:06.880Z,88.23
2023-06-30T06:45:10.314Z,86.64
2023-06-30T06:50:13.492Z,85.49
2023-06-30T06:55:17.959Z,82.68
2023-06-30T07:00:21.653Z,83.78
2023-06-30T07:05:24.717Z,81.58
2023-06-30T07:10:30.805Z,78.29
2023-06-30T07:15:35.561Z,77.21
2023-06-30T07:20:38.653Z,76.65
2023-06-30T07:25:43.430Z,77.78
2023-06-30T07:30:46.544Z,73.87
2023-06-30T07:35:50.034Z,75.33
2023-06-30T07:40:57.225Z,73.33
2023-06-30T07:46:00.847Z,70.43
2023-06-30T07:51:09.233Z,72.64
2023-06-30T07:56:14.475Z,70.15
2023-06-30T08:01:17.744Z,71.05
2023-06-30T08:06:20.994Z,69.30
2023-06-30T08:11:26.774Z,61.01
2023-06-30T08:16:30.190Z,61.93
2023-06-30T08:21:33.240Z,64.69
2023-06-30T08:26:37.830Z,65.57
2023-06-30T08:31:40.940Z,63.02
2023-06-30T08:36:43.992Z,58.07
2023-06-30T08:41:51.491Z,59.97
2023-06-30T08:46:55.862Z,58.76
2023-06-30T08:52:00.602Z,57.84
2023-06-30T08:57:07.071Z,56.67
2023-06-30T09:02:10.480Z,56.09
2023-06-30T09:07:22.797Z,53.89
2023-06-30T09:12:28.893Z,53.36
2023-06-30T09:17:33.434Z,53.79
2023-06-30T09:22:55.261Z,52.89
2023-06-30T09:28:01.147Z,51.60
2023-06-30T09:33:04.659Z,55.18
2023-06-30T09:38:12.505Z,52.41
2023-06-30T09:43:20.064Z,50.10
2023-06-30T09:48:23.168Z,51.53
2023-06-30T09:53:26.308Z,53.78
2023-06-30T09:58:32.002Z,50.97
2023-06-30T10:03:35.325Z,51.80
2023-06-30T10:08:38.534Z,48.00
2023-06-30T10:13:45.126Z,46.48
2023-06-30T10:18:49.640Z,46.93
2023-06-30T10:23:54.408Z,49.97
2023-06-30T10:28:59.448Z,48.27
2023-06-30T10:34:03.227Z,47.06
2023-06-30T10:39:06.831Z,46.61
2023-06-30T10:44:11.664Z,48.88
2023-06-30T10:49:19.535Z,48.55
2023-06-30T10:54:24.712Z,46.28
2023-06-30T10:59:38.094Z,47.22
2023-06-30T11:04:42.109Z,45.33
2023-06-30T11:10:07.299Z,45.60
2023-06-30T11:15:27.009Z,44.81
2023-06-30T11:20:31.201Z,47.84
2023-06-30T11:25:35.511Z,48.78
2023-06-30T11:30:40.972Z,46.51
2023-06-30T11:35:44.774Z,47.70
2023-06-30T11:40:49.612Z,44.66
2023-06-30T11:46:02.891Z,44.97
2023-06-30T11:51:06.824Z,43.14
2023-06-30T11:56:09.953Z,42.33
2023-06-30T12:01:14.456Z,45.09
2023-06-30T12:06:19.691Z,42.25
2023-06-30T12:11:25.224Z,44.11
2023-06-30T12:16:41.140Z,42.68
2023-06-30T12:21:54.684Z,41.49
2023-06-30T12:26:57.977Z,43.86
2023-06-30T12:32:02.743Z,43.54
2023-06-30T12:37:06.719Z,45.55
2023-06-30T12:42:12.356Z,44.86
2023-06-30T12:47:16.953Z,44.05
2023-06-30T12:52:20.391Z,44.47
2023-06-30T12:57:23.419Z,44.47
2023-06-30T13:02:28.130Z,44.19
2023-06-30T13:07:33.438Z,43.78
2023-06-30T13:12:41.103Z,44.28
2023-06-30T13:17:45.596Z,44.29
2023-06-30T13:23:07.920Z,42.75
2023-06-30T13:28:12.464Z,43.76
2023-06-30T13:33:16.999Z,43.68
2023-06-30T13:38:20.039Z,42.99
2023-06-30T13:43:24.227Z,43.12
2023-06-30T13:48:28.681Z,42.54
2023-06-30T13:53:32.185Z,44.18
2023-06-30T13:58:35.373Z,43.78
2023-06-30T14:03:41.441Z,42.81
2023-06-30T14:08:44.601Z,41.93
2023-06-30T14:13:47.629Z,42.75
2023-06-30T14:18:52.091Z,42.51
2023-06-30T14:23:55.156Z,42.77
2023-06-30T14:28:58.259Z,40.41
2023-06-30T14:34:02.792Z,41.44
2023-06-30T14:39:05.911Z,42.38
2023-06-30T14:44:09.030Z,43.28
2023-06-30T14:49:13.427Z,43.37
2023-06-30T14:54:16.722Z,43.68
2023-06-30T14:59:19.738Z,44.98
2023-06-30T15:04:24.201Z,43.33
2023-06-30T15:09:27.695Z,42.54
2023-06-30T15:14:31.392Z,42.86
2023-06-30T15:19:36.348Z,42.40
2023-06-30T15:24:39.571Z,42.78
2023-06-30T15:29:42.587Z,44.69
2023-06-30T15:34:47.207Z,43.15
2023-06-30T15:39:50.401Z,44.94
2023-06-30T15:44:53.539Z,45.14
2023-06-30T15:49:58.337Z,44.22
2023-06-30T15:55:09.943Z,44.60
2023-06-30T16:00:14.142Z,45.14
2023-06-30T16:05:21.660Z,44.84
2023-06-30T16:10:24.892Z,45.97
2023-06-30T16:15:27.976Z,46.78
2023-06-30T16:20:32.556Z,47.35
2023-06-30T16:25:36.040Z,47.70
2023-06-30T16:30:39.758Z,48.60
2023-06-30T16:35:44.594Z,49.34
2023-06-30T16:40:49.561Z,50.21
2023-06-30T16:45:55.823Z,50.52
2023-06-30T16:51:00.203Z,49.55
2023-06-30T16:56:03.505Z,50.12
2023-06-30T17:01:06.802Z,51.66
2023-06-30T17:06:11.339Z,51.41
2023-06-30T17:11:14.515Z,52.30
2023-06-30T17:16:17.667Z,53.04
2023-06-30T17:21:22.136Z,54.26
2023-06-30T17:26:25.191Z,54.55
2023-06-30T17:31:28.337Z,55.46
2023-06-30T17:36:33.018Z,55.60
2023-06-30T17:41:36.099Z,57.03
2023-06-30T17:46:39.113Z,56.42
2023-06-30T17:51:43.670Z,55.29
2023-06-30T17:56:47.164Z,55.14
2023-06-30T18:01:50.652Z,53.84
2023-06-30T18:07:12.564Z,54.10
2023-06-30T18:12:16.329Z,55.06
2023-06-30T18:17:19.663Z,56.23
2023-06-30T18:22:26.735Z,57.20
2023-06-30T18:27:30.021Z,57.86
2023-06-30T18:32:33.145Z,58.46
2023-06-30T18:37:37.797Z,58.83
2023-06-30T18:42:41.318Z,60.45
2023-06-30T18:47:46.610Z,61.21
2023-06-30T18:52:51.166Z,62.26
2023-06-30T18:57:54.333Z,61.91
2023-06-30T19:02:57.494Z,61.05
2023-06-30T19:08:02.036Z,60.98
2023-06-30T19:13:05.351Z,60.83
2023-06-30T19:18:08.606Z,62.01
2023-06-30T19:23:13.890Z,62.42
2023-06-30T19:28:17.095Z,62.68
2023-06-30T19:33:21.142Z,62.88
2023-06-30T19:38:25.707Z,64.23
2023-06-30T19:43:28.946Z,64.72
2023-06-30T19:48:32.283Z,64.27
2023-06-30T19:53:36.852Z,65.67
2023-06-30T19:58:40.040Z,65.39
2023-06-30T20:03:43.313Z,65.74
2023-06-30T20:08:48.719Z,66.19
2023-06-30T20:13:51.808Z,65.72
2023-06-30T20:18:54.937Z,66.97
2023-06-30T20:23:59.440Z,66.71
2023-06-30T20:29:02.621Z,65.85
2023-06-30T20:34:05.838Z,64.59
2023-06-30T20:39:10.323Z,63.53
2023-06-30T20:44:15.775Z,63.00
2023-06-30T20:49:20.612Z,62.79
2023-06-30T20:54:25.254Z,63.38
2023-06-30T20:59:28.859Z,62.93
2023-06-30T21:04:31.983Z,63.01
2023-06-30T21:09:37.315Z,62.47
2023-06-30T21:14:40.431Z,62.26
2023-06-30T21:19:43.588Z,62.08
2023-06-30T21:24:48.048Z,62.27
2023-06-30T21:29:53.351Z,62.50
2023-06-30T21:34:56.381Z,62.85
2023-06-30T21:40:02.282Z,62.55
2023-06-30T21:45:06.503Z,63.09
2023-06-30T21:50:11.565Z,62.52
2023-06-30T21:55:16.187Z,62.92
2023-06-30T22:00:20.121Z,62.29
2023-06-30T22:05:23.276Z,63.08
2023-06-30T22:10:27.817Z,62.99
2023-06-30T22:15:31.041Z,62.92
2023-06-30T22:20:34.384Z,63.18
2023-06-30T22:25:38.886Z,64.18
2023-06-30T22:30:42.000Z,64.09
2023-06-30T22:35:44.979Z,64.69
2023-06-30T22:40:49.564Z,65.51
2023-06-30T22:45:53.318Z,65.61
2023-06-30T22:50:56.382Z,65.91
2023-06-30T22:56:00.750Z,65.13
2023-06-30T23:01:06.496Z,64.82
2023-06-30T23:06:09.652Z,65.07
2023-06-30T23:11:14.417Z,65.48
2023-06-30T23:16:17.497Z,65.59
2023-06-30T23:21:20.754Z,66.13
2023-06-30T23:26:25.332Z,66.06
2023-06-30T23:31:34.396Z,66.27
2023-06-30T23:36:37.480Z,66.93
2023-06-30T23:41:41.947Z,67.49
2023-06-30T23:46:44.932Z,68.04
2023-06-30T23:51:48.075Z,67.89
2023-06-30T23:56:52.465Z,68.79
